Ashland, KY (41101)

4:23 AM EDT on July 02, 2015 (GMT -0400)
Sherwood Forest | | Change Station
CLOSE
Current Station
Personal Weather Station
Location: Ashland, KY
Elevation: 673 ft
Nearby Weather Stations

Elev 673 ft 38.44 °N, 82.63 °W | Updated 18 seconds ago

Fog
Fog
66.0 °F
Feels Like 66.0 °F
N
0.0
Wind Variable Wind from North
Gusts 0.0 mph

Today
High -- | Low -- °F
--% Chance of Precip.
Yesterday
High -- | Low -- °F
Precip. -- in
6:10 AM 8:58 PM
Full, 100% visible
Pressure 29.91 in
Visibility 1.2 miles
Clouds Scattered Clouds 900 ft
Dew Point 65 °F
Humidity 97%
Rainfall 0.00 in
Snow Depth Not available.
UV 0 out of 12
Pollen 3.50 out of 12
Air Quality Not available.
Flu Activity Not available.
SPECI KHTS 020815Z AUTO 21004KT 1 1/4SM BR SCT009 19/19 A2991 RMK AO2 T01890189 TSNO

More Conditions Fewer Conditions

Pressure 29.91 in
Visibility 1.2 miles
Clouds Scattered Clouds 900 ft
Dew Point 65 °F
Humidity 97%
Rainfall 0.00 in
Snow Depth Not available.
UV 0 out of 12
Pollen 3.50 out of 12
Air Quality Not available.
Flu Activity Not available.
SPECI KHTS 020815Z AUTO 21004KT 1 1/4SM BR SCT009 19/19 A2991 RMK AO2 T01890189 TSNO

More Conditions Fewer Conditions

10-Day Weather Forecast

×

Almanac

Astronomy

Jul. 02, 2015 Rise Set
Actual Time
Civil Twilight
Nautical Twilight
Astronomical Twilight
Moon
Length of Visible Light
Length of Day
Tomorrow will be .
, % of the Moon is Illuminated

Today's Extremes

State Highs State Lows

Community

WunderPhotos

Upload Photos

1,834,423 photos uploaded!

WunderBlogs® & News

Nearby

Air Quality

  Air Quality AQ Index Pollutant
Not available.

Snow Depth

Station Depth Elevation

Earthquake Activity

City Distance Mag. Time & Date
Minimum magnitude displayed is 2.5.

Coastal Water Temperatures

Place Temperature

Stations

Nearby Weather Stations

Station Location Temp. Windchill Dew Point Humidity Wind Precip. Elev Updated Type